createdAt,value
2022-10-11T00:02:17.977Z,101287.41
2022-10-11T00:04:50.704Z,101282.22
2022-10-11T00:07:21.212Z,101285.69
2022-10-11T00:09:51.428Z,101267.47
2022-10-11T00:12:21.618Z,101285.69
2022-10-11T00:14:51.763Z,101296.09
2022-10-11T00:17:21.901Z,101304.78
2022-10-11T00:19:52.132Z,101287.44
2022-10-11T00:22:22.272Z,101283.94
2022-10-11T00:24:53.367Z,101288.28
2022-10-11T00:27:23.510Z,101278.75
2022-10-11T00:29:53.745Z,101272.66
2022-10-11T00:32:23.961Z,101288.25
2022-10-11T00:34:56.309Z,101290.00
2022-10-11T00:37:26.558Z,101271.75
2022-10-11T00:39:57.073Z,101278.75
2022-10-11T00:42:27.264Z,101275.28
2022-10-11T00:45:28.321Z,101294.38
2022-10-11T00:48:07.678Z,101279.59
2022-10-11T00:50:38.121Z,101256.19
2022-10-11T00:53:11.531Z,101277.88
2022-10-11T00:55:51.813Z,101254.41
2022-10-11T00:58:23.840Z,101270.03
2022-10-11T01:00:54.569Z,101252.69
2022-10-11T01:03:27.016Z,101263.09
2022-10-11T01:05:57.260Z,101276.16
2022-10-11T01:08:28.039Z,101233.63
2022-10-11T01:10:58.971Z,101259.69
2022-10-11T01:13:52.354Z,101279.66
2022-10-11T01:16:42.906Z,101285.78
2022-10-11T01:19:15.658Z,101274.47
2022-10-11T01:21:51.948Z,101256.28
2022-10-11T01:24:42.368Z,101257.16
2022-10-11T01:27:58.182Z,101251.94
2022-10-11T01:30:29.065Z,101271.03
2022-10-11T01:33:43.031Z,101228.56
2022-10-11T01:36:31.650Z,101275.41
2022-10-11T01:39:16.840Z,101260.69
2022-10-11T01:41:51.353Z,101284.16
2022-10-11T01:44:27.351Z,101233.78
2022-10-11T01:46:57.456Z,101269.38
2022-10-11T01:49:27.613Z,101283.28
2022-10-11T01:52:01.248Z,101283.28
2022-10-11T01:55:03.845Z,101292.84
2022-10-11T01:57:39.182Z,101293.72
2022-10-11T02:00:17.573Z,101294.59
2022-10-11T02:03:00.426Z,101277.25
2022-10-11T02:06:09.174Z,101298.91
2022-10-11T02:08:55.457Z,101277.25
2022-10-11T02:11:30.238Z,101288.56
2022-10-11T02:14:18.602Z,101298.09
2022-10-11T02:16:57.978Z,101306.78
2022-10-11T02:19:33.048Z,101292.91
2022-10-11T02:22:14.130Z,101270.31
2022-10-11T02:24:49.562Z,101277.25
2022-10-11T02:27:25.797Z,101292.91
2022-10-11T02:29:59.938Z,101317.22
2022-10-11T02:32:32.375Z,101308.53
2022-10-11T02:35:03.811Z,101306.78
2022-10-11T02:37:44.962Z,101320.72
2022-10-11T02:40:27.844Z,101299.00
2022-10-11T02:43:06.955Z,101275.53
2022-10-11T02:45:42.271Z,101318.94
2022-10-11T02:48:12.890Z,101304.16
2022-10-11T02:50:43.796Z,101285.94
2022-10-11T02:53:13.852Z,101303.28
2022-10-11T02:55:44.070Z,101303.31
2022-10-11T02:58:14.318Z,101292.88
2022-10-11T03:00:44.765Z,101314.59
2022-10-11T03:03:15.052Z,101292.88
2022-10-11T03:05:45.379Z,101307.63
2022-10-11T03:08:17.381Z,101325.00
2022-10-11T03:10:47.817Z,101317.19
2022-10-11T03:13:18.591Z,101311.09
2022-10-11T03:16:02.828Z,101301.53
2022-10-11T03:18:33.654Z,101326.72
2022-10-11T03:21:03.991Z,101321.53
2022-10-11T03:23:34.210Z,101318.03
2022-10-11T03:26:04.681Z,101337.19
2022-10-11T03:28:35.102Z,101353.66
2022-10-11T03:31:05.312Z,101342.38
2022-10-11T03:33:35.562Z,101350.22
2022-10-11T03:36:07.292Z,101340.66
2022-10-11T03:38:37.841Z,101343.25
2022-10-11T03:41:08.296Z,101365.84
2022-10-11T03:43:38.429Z,101346.72
2022-10-11T03:46:08.907Z,101328.47
2022-10-11T03:48:39.632Z,101329.34
2022-10-11T03:51:09.883Z,101368.47
2022-10-11T03:53:40.333Z,101331.09
2022-10-11T03:56:10.842Z,101366.72
2022-10-11T03:58:41.797Z,101370.19
2022-10-11T04:01:12.017Z,101341.53
2022-10-11T04:03:42.168Z,101353.66
2022-10-11T04:06:12.258Z,101370.19
2022-10-11T04:08:42.456Z,101382.34
2022-10-11T04:11:12.635Z,101354.53
2022-10-11T04:13:42.758Z,101369.34
2022-10-11T04:16:12.922Z,101385.84
2022-10-11T04:18:43.077Z,101363.28
2022-10-11T04:21:13.211Z,101369.34
2022-10-11T04:23:43.322Z,101391.09
2022-10-11T04:26:13.451Z,101378.94
2022-10-11T04:28:43.644Z,101391.97
2022-10-11T04:31:14.173Z,101391.09
2022-10-11T04:33:44.387Z,101402.41
2022-10-11T04:36:14.508Z,101400.69
2022-10-11T04:38:44.663Z,101406.75
2022-10-11T04:41:15.916Z,101360.69
2022-10-11T04:43:46.027Z,101380.69
2022-10-11T04:46:16.232Z,101405.91
2022-10-11T04:48:46.365Z,101388.50
2022-10-11T04:51:17.230Z,101418.94
2022-10-11T04:53:49.166Z,101405.91
2022-10-11T04:56:19.266Z,101403.28
2022-10-11T04:58:49.665Z,101423.28
2022-10-11T05:01:20.601Z,101419.81
2022-10-11T05:03:50.760Z,101409.38
2022-10-11T05:06:21.207Z,101428.47
2022-10-11T05:08:51.233Z,101434.56
2022-10-11T05:11:21.453Z,101436.31
2022-10-11T05:13:51.727Z,101429.38
2022-10-11T05:16:21.852Z,101446.75
2022-10-11T05:18:52.016Z,101444.16
2022-10-11T05:21:28.247Z,101453.69
2022-10-11T05:23:58.675Z,101454.56
2022-10-11T05:26:29.098Z,101473.69
2022-10-11T05:28:59.297Z,101467.59
2022-10-11T05:31:29.572Z,101471.06
2022-10-11T05:34:00.926Z,101475.41
2022-10-11T05:36:31.117Z,101485.00
2022-10-11T05:39:01.163Z,101476.31
2022-10-11T05:41:31.255Z,101471.06
2022-10-11T05:44:01.322Z,101460.63
2022-10-11T05:46:31.513Z,101486.75
2022-10-11T05:49:01.626Z,101459.78
2022-10-11T05:51:31.738Z,101501.53
2022-10-11T05:54:01.839Z,101460.63
2022-10-11T05:56:32.011Z,101469.31
2022-10-11T05:59:02.633Z,101509.34
2022-10-11T06:01:33.062Z,101518.06
2022-10-11T06:04:04.981Z,101496.28
2022-10-11T06:06:35.053Z,101528.50
2022-10-11T06:09:05.251Z,101538.91
2022-10-11T06:11:35.365Z,101528.47
2022-10-11T06:14:05.434Z,101542.38
2022-10-11T06:16:35.521Z,101531.06
2022-10-11T06:19:05.749Z,101551.94
2022-10-11T06:21:35.930Z,101536.28
2022-10-11T06:24:07.505Z,101558.03
2022-10-11T06:26:37.656Z,101512.78
2022-10-11T06:29:07.859Z,101558.91
2022-10-11T06:31:38.060Z,101546.72
2022-10-11T06:34:08.176Z,101577.19
2022-10-11T06:36:38.278Z,101587.66
2022-10-11T06:39:08.394Z,101582.41
2022-10-11T06:41:38.532Z,101554.53
2022-10-11T06:44:14.181Z,101603.28
2022-10-11T06:46:44.581Z,101608.53
2022-10-11T06:49:18.238Z,101608.53
2022-10-11T06:51:51.462Z,101613.75
2022-10-11T06:54:21.699Z,101616.34
2022-10-11T06:56:51.984Z,101614.59
2022-10-11T06:59:22.131Z,101576.28
2022-10-11T07:01:52.356Z,101593.69
2022-10-11T07:04:22.536Z,101598.91
2022-10-11T07:06:52.666Z,101603.28
2022-10-11T07:09:22.934Z,101611.16
2022-10-11T07:11:53.279Z,101618.97
2022-10-11T07:14:23.398Z,101632.91
2022-10-11T07:16:53.456Z,101603.31
2022-10-11T07:19:23.685Z,101629.44
2022-10-11T07:21:53.886Z,101636.38
2022-10-11T07:24:24.065Z,101647.72
2022-10-11T07:26:54.283Z,101660.78
2022-10-11T07:29:24.539Z,101643.38
2022-10-11T07:31:54.708Z,101648.59
2022-10-11T07:34:24.878Z,101665.16
2022-10-11T07:36:55.026Z,101666.00
2022-10-11T07:39:25.210Z,101678.22
2022-10-11T07:41:55.302Z,101672.97
2022-10-11T07:44:25.698Z,101686.88
2022-10-11T07:46:55.852Z,101691.28
2022-10-11T07:49:25.950Z,101686.88
2022-10-11T07:51:56.089Z,101693.00
2022-10-11T07:54:26.275Z,101697.34
2022-10-11T07:56:56.514Z,101704.31
2022-10-11T07:59:26.679Z,101717.38
2022-10-11T08:01:56.834Z,101709.53
2022-10-11T08:04:27.066Z,101699.94
2022-10-11T08:06:57.211Z,101724.31
2022-10-11T08:09:27.326Z,101720.84
2022-10-11T08:11:57.818Z,101724.34
2022-10-11T08:14:28.094Z,101729.59
2022-10-11T08:16:58.267Z,101714.75
2022-10-11T08:19:28.436Z,101727.84
2022-10-11T08:21:58.505Z,101734.81
2022-10-11T08:24:28.683Z,101745.28
2022-10-11T08:26:58.909Z,101736.56
2022-10-11T08:29:29.096Z,101723.50
2022-10-11T08:31:59.213Z,101733.06
2022-10-11T08:34:29.490Z,101726.13
2022-10-11T08:36:59.733Z,101746.19
2022-10-11T08:39:30.161Z,101731.38
2022-10-11T08:42:11.529Z,101733.97
2022-10-11T08:45:09.485Z,101768.88
2022-10-11T08:47:41.234Z,101744.44
2022-10-11T08:50:19.956Z,101752.28
2022-10-11T08:52:59.533Z,101743.56
2022-10-11T08:55:29.695Z,101761.88
2022-10-11T08:58:00.038Z,101753.16
2022-10-11T09:00:34.136Z,101753.16
2022-10-11T09:03:36.600Z,101767.09
2022-10-11T09:06:07.563Z,101775.84
2022-10-11T09:08:50.359Z,101745.34
2022-10-11T09:11:32.824Z,101789.78
2022-10-11T09:14:05.697Z,101798.50
2022-10-11T09:16:54.270Z,101789.75
2022-10-11T09:20:02.283Z,101794.97
2022-10-11T09:22:48.145Z,101800.22
2022-10-11T09:25:18.219Z,101798.50
2022-10-11T09:28:20.221Z,101808.94
2022-10-11T09:30:59.068Z,101799.34
2022-10-11T09:33:34.887Z,101816.78
2022-10-11T09:36:34.227Z,101793.25
2022-10-11T09:39:34.199Z,101778.41
2022-10-11T09:42:09.381Z,101818.53
2022-10-11T09:44:45.555Z,101821.16
2022-10-11T09:47:20.286Z,101819.38
2022-10-11T09:50:03.500Z,101826.34
2022-10-11T09:52:34.442Z,101801.97
2022-10-11T09:55:04.900Z,101809.78
2022-10-11T09:57:39.296Z,101830.69
2022-10-11T10:00:12.287Z,101822.81
2022-10-11T10:02:44.918Z,101825.44
2022-10-11T10:05:18.863Z,101837.63
2022-10-11T10:10:59.833Z,101830.63
2022-10-11T10:13:51.618Z,101845.47
2022-10-11T10:16:28.627Z,101845.47
2022-10-11T10:19:03.623Z,101850.72
2022-10-11T10:21:40.469Z,101836.72
2022-10-11T10:24:39.455Z,101843.69
2022-10-11T10:27:17.176Z,101848.03
2022-10-11T10:30:02.739Z,101848.00
2022-10-11T10:32:43.854Z,101845.38
2022-10-11T10:35:43.153Z,101854.94
2022-10-11T10:38:36.591Z,101852.31
2022-10-11T10:41:10.927Z,101856.66
2022-10-11T10:43:43.302Z,101854.91
2022-10-11T10:46:37.067Z,101864.47
2022-10-11T10:49:53.142Z,101865.34
2022-10-11T10:52:44.158Z,101881.06
2022-10-11T10:55:33.353Z,101873.19
2022-10-11T10:58:16.457Z,101867.06
2022-10-11T11:00:51.093Z,101882.81
2022-10-11T11:03:33.668Z,101880.16
2022-10-11T11:06:12.045Z,101874.94
2022-10-11T11:08:55.288Z,101881.09
2022-10-11T11:11:36.162Z,101877.66
2022-10-11T11:14:18.349Z,101883.81
2022-10-11T11:16:51.261Z,101884.69
2022-10-11T11:19:36.444Z,101891.69
2022-10-11T11:22:14.422Z,101893.44
2022-10-11T11:24:50.780Z,101886.47
2022-10-11T11:27:32.970Z,101892.59
2022-10-11T11:30:12.049Z,101896.97
2022-10-11T11:33:09.524Z,101892.59
2022-10-11T11:35:44.207Z,101900.47
2022-10-11T11:38:29.442Z,101901.34
2022-10-11T11:41:05.427Z,101896.97
2022-10-11T11:43:39.957Z,101880.44
2022-10-11T11:46:18.854Z,101886.50
2022-10-11T11:48:52.322Z,101901.28
2022-10-11T11:51:31.333Z,101900.41
2022-10-11T11:54:06.353Z,101901.31
2022-10-11T11:57:04.801Z,101904.81
2022-10-11T11:59:43.762Z,101903.94
2022-10-11T12:02:31.471Z,101897.81
2022-10-11T12:05:02.258Z,101898.72
2022-10-11T12:07:46.152Z,101908.28
2022-10-11T12:10:36.190Z,101902.19
2022-10-11T12:13:32.478Z,101899.53
2022-10-11T12:16:13.677Z,101890.81
2022-10-11T12:19:01.094Z,101895.13
2022-10-11T12:21:41.126Z,101896.84
2022-10-11T12:24:20.541Z,101891.53
2022-10-11T12:26:55.970Z,101889.75
2022-10-11T12:29:41.742Z,101896.69
2022-10-11T12:32:34.608Z,101899.28
2022-10-11T12:35:32.563Z,101906.25
2022-10-11T12:38:16.776Z,101908.91
2022-10-11T12:40:49.049Z,101910.66
2022-10-11T12:43:19.227Z,101913.25
2022-10-11T12:45:49.681Z,101903.69
2022-10-11T12:48:58.416Z,101902.78
2022-10-11T12:51:42.025Z,101916.72
2022-10-11T12:54:26.708Z,101923.69
2022-10-11T12:57:22.118Z,101910.59
2022-10-11T12:59:52.445Z,101919.31
2022-10-11T13:02:29.038Z,101913.22
2022-10-11T13:05:45.550Z,101911.53
2022-10-11T13:08:23.782Z,101909.78
2022-10-11T13:10:57.604Z,101916.78
2022-10-11T13:13:45.271Z,101908.03
2022-10-11T13:16:18.521Z,101927.25
2022-10-11T13:18:54.171Z,101937.69
2022-10-11T13:21:36.226Z,101931.59
2022-10-11T13:24:17.078Z,101909.84
2022-10-11T13:26:50.798Z,101915.13
2022-10-11T13:29:35.495Z,101926.53
2022-10-11T13:32:16.451Z,101929.13
2022-10-11T13:34:49.843Z,101920.41
2022-10-11T13:37:22.207Z,101927.41
2022-10-11T13:39:55.570Z,101911.72
2022-10-11T13:42:32.189Z,101940.50
2022-10-11T13:45:02.556Z,101939.66
2022-10-11T13:47:33.312Z,101927.44
2022-10-11T13:50:15.549Z,101937.06
2022-10-11T13:53:05.437Z,101938.78
2022-10-11T13:55:48.576Z,101942.28
2022-10-11T13:58:25.986Z,101948.38
2022-10-11T14:01:02.874Z,101937.84
2022-10-11T14:03:44.254Z,101935.22
2022-10-11T14:06:15.007Z,101937.78
2022-10-11T14:08:49.978Z,101953.41
2022-10-11T14:11:38.261Z,101945.50
2022-10-11T14:14:39.528Z,101967.28
2022-10-11T14:17:16.276Z,101965.53
2022-10-11T14:19:48.475Z,101937.56
2022-10-11T14:22:19.439Z,101965.53
2022-10-11T14:24:49.721Z,101959.47
2022-10-11T14:27:27.061Z,101960.41
2022-10-11T14:30:20.304Z,101941.25
2022-10-11T14:32:51.246Z,101965.66
2022-10-11T14:35:26.535Z,101946.53
2022-10-11T14:37:56.849Z,101967.50
2022-10-11T14:40:30.747Z,101956.22
2022-10-11T14:43:00.913Z,101962.38
2022-10-11T14:45:31.205Z,101966.75
2022-10-11T14:48:01.564Z,101961.53
2022-10-11T14:50:48.111Z,101972.00
2022-10-11T14:53:18.558Z,101979.84
2022-10-11T14:55:49.213Z,101991.22
2022-10-11T14:58:19.403Z,101994.72
2022-10-11T15:00:49.630Z,101988.59
2022-10-11T15:03:19.981Z,101985.13
2022-10-11T15:05:51.827Z,101982.53
2022-10-11T15:08:21.924Z,101991.25
2022-10-11T15:10:52.199Z,101980.78
2022-10-11T15:13:22.818Z,101977.28
2022-10-11T15:15:52.995Z,101979.03
2022-10-11T15:18:23.358Z,101995.59
2022-10-11T15:20:55.196Z,101970.25
2022-10-11T15:23:25.455Z,101974.63
2022-10-11T15:25:55.681Z,102003.41
2022-10-11T15:28:32.049Z,101996.44
2022-10-11T15:31:02.462Z,102007.78
2022-10-11T15:33:32.593Z,102007.78
2022-10-11T15:36:03.328Z,101995.53
2022-10-11T15:38:33.667Z,101998.19
2022-10-11T15:41:03.977Z,102013.84
2022-10-11T15:43:34.625Z,102024.31
2022-10-11T15:46:05.492Z,102019.03
2022-10-11T15:48:35.871Z,102021.66
2022-10-11T15:51:06.104Z,102029.47
2022-10-11T15:53:36.700Z,102021.63
2022-10-11T15:56:10.214Z,102032.06
2022-10-11T15:58:41.729Z,102043.41
2022-10-11T16:01:16.388Z,102046.03
2022-10-11T16:03:49.131Z,102019.81
2022-10-11T16:06:19.791Z,102036.41
2022-10-11T16:08:50.293Z,102051.19
2022-10-11T16:11:23.027Z,102050.31
2022-10-11T16:13:54.110Z,102042.47
2022-10-11T16:16:24.395Z,102055.53
2022-10-11T16:18:54.835Z,102059.03
2022-10-11T16:21:25.049Z,102048.53
2022-10-11T16:23:55.244Z,102058.06
2022-10-11T16:26:25.403Z,102040.63
2022-10-11T16:28:56.910Z,102058.97
2022-10-11T16:31:27.257Z,102053.69
2022-10-11T16:33:58.150Z,102058.03
2022-10-11T16:36:40.843Z,102058.03
2022-10-11T16:39:14.630Z,102057.13
2022-10-11T16:41:45.572Z,102061.50
2022-10-11T16:44:19.201Z,102076.34
2022-10-11T16:46:49.390Z,102065.81
2022-10-11T16:49:23.033Z,102051.88
2022-10-11T16:51:55.585Z,102072.81
2022-10-11T16:54:30.537Z,102059.69
2022-10-11T16:57:00.961Z,102084.16
2022-10-11T16:59:31.160Z,102074.50
2022-10-11T17:02:01.625Z,102084.13
2022-10-11T17:04:34.710Z,102080.63
2022-10-11T17:07:12.349Z,102085.84
2022-10-11T17:09:44.519Z,102091.94
2022-10-11T17:12:17.158Z,102091.88
2022-10-11T17:14:47.891Z,102088.34
2022-10-11T17:17:18.974Z,102088.34
2022-10-11T17:19:49.269Z,102090.06
2022-10-11T17:22:20.401Z,102085.72
2022-10-11T17:24:50.635Z,102093.66
2022-10-11T17:27:21.105Z,102068.22
2022-10-11T17:29:51.302Z,102091.81
2022-10-11T17:32:21.474Z,102095.31
2022-10-11T17:34:51.661Z,102061.16
2022-10-11T17:37:21.772Z,102081.22
2022-10-11T17:39:52.013Z,102083.78
2022-10-11T17:42:22.133Z,102071.53
2022-10-11T17:44:52.320Z,102079.28
2022-10-11T17:47:22.484Z,102102.91
2022-10-11T17:49:52.610Z,102097.69
2022-10-11T17:52:22.706Z,102107.28
2022-10-11T17:54:52.923Z,102107.25
2022-10-11T17:57:23.093Z,102099.44
2022-10-11T17:59:53.444Z,102081.97
2022-10-11T18:02:23.620Z,102107.28
2022-10-11T18:04:53.828Z,102104.66
2022-10-11T18:07:24.442Z,102090.69
2022-10-11T18:09:54.856Z,102102.03
2022-10-11T18:12:26.244Z,102101.19
2022-10-11T18:14:56.445Z,102081.94
2022-10-11T18:17:26.696Z,102105.50
2022-10-11T18:19:56.860Z,102102.91
2022-10-11T18:22:27.423Z,102101.09
2022-10-11T18:24:57.595Z,102099.31
2022-10-11T18:27:28.435Z,102097.56
2022-10-11T18:29:58.582Z,102106.25
2022-10-11T18:32:28.697Z,102106.22
2022-10-11T18:34:59.957Z,102086.09
2022-10-11T18:37:30.417Z,102094.88
2022-10-11T18:40:00.828Z,102107.91
2022-10-11T18:42:30.998Z,102097.44
2022-10-11T18:45:01.158Z,102094.75
2022-10-11T18:47:31.275Z,102104.34
2022-10-11T18:50:01.488Z,102092.97
2022-10-11T18:52:32.330Z,102100.78
2022-10-11T18:55:05.227Z,102108.59
2022-10-11T18:57:35.336Z,102104.19
2022-10-11T19:00:16.859Z,102110.31
2022-10-11T19:02:56.556Z,102103.28
2022-10-11T19:05:27.878Z,102104.19
2022-10-11T19:07:57.959Z,102090.97
2022-10-11T19:10:28.273Z,102106.72
2022-10-11T19:12:58.378Z,102088.34
2022-10-11T19:15:29.002Z,102100.56
2022-10-11T19:17:59.318Z,102104.94
2022-10-11T19:20:29.551Z,102113.59
2022-10-11T19:22:59.724Z,102103.94
2022-10-11T19:25:30.068Z,102102.25
2022-10-11T19:28:00.227Z,102094.34
2022-10-11T19:30:32.332Z,102109.16
2022-10-11T19:33:04.817Z,102102.16
2022-10-11T19:35:35.006Z,102093.31
2022-10-11T19:38:05.097Z,102111.63
2022-10-11T19:40:38.704Z,102115.94
2022-10-11T19:43:08.811Z,102118.53
2022-10-11T19:45:38.911Z,102114.16
2022-10-11T19:48:09.084Z,102108.94
2022-10-11T19:50:39.176Z,102101.00
2022-10-11T19:53:09.389Z,102090.44
2022-10-11T19:55:43.048Z,102113.16
2022-10-11T19:58:16.430Z,102115.75
2022-10-11T20:00:46.577Z,102114.88
2022-10-11T20:03:16.774Z,102088.56
2022-10-11T20:05:46.883Z,102112.09
2022-10-11T20:08:17.037Z,102111.25
2022-10-11T20:10:47.705Z,102118.16
2022-10-11T20:13:17.857Z,102122.53
2022-10-11T20:15:49.419Z,102112.88
2022-10-11T20:18:19.526Z,102119.00
2022-10-11T20:20:58.152Z,102112.00
2022-10-11T20:23:28.303Z,102114.59
2022-10-11T20:26:07.650Z,102115.41
2022-10-11T20:28:38.581Z,102111.84
2022-10-11T20:31:17.543Z,102103.91
2022-10-11T20:33:49.585Z,102116.97
2022-10-11T20:36:21.652Z,102115.25
2022-10-11T20:38:52.656Z,102095.91
2022-10-11T20:41:27.472Z,102109.00
2022-10-11T20:43:59.544Z,102120.38
2022-10-11T20:46:32.786Z,102124.63
2022-10-11T20:49:05.795Z,102122.03
2022-10-11T20:51:37.955Z,102119.41
2022-10-11T20:54:08.365Z,102111.53
2022-10-11T20:56:39.072Z,102117.59
2022-10-11T20:59:10.419Z,102100.91
2022-10-11T21:01:41.898Z,102116.59
2022-10-11T21:04:18.852Z,102120.97
2022-10-11T21:06:49.467Z,102112.25
2022-10-11T21:09:19.677Z,102122.66
2022-10-11T21:11:49.804Z,102131.28
2022-10-11T21:14:19.972Z,102129.50
2022-10-11T21:16:50.157Z,102132.06
2022-10-11T21:19:20.428Z,102121.56
2022-10-11T21:21:53.677Z,102118.88
2022-10-11T21:24:24.142Z,102122.34
2022-10-11T21:26:59.561Z,102133.66
2022-10-11T21:29:30.758Z,102126.63
2022-10-11T21:32:01.158Z,102131.00
2022-10-11T21:34:31.325Z,102129.16
2022-10-11T21:37:01.487Z,102115.16
2022-10-11T21:39:31.749Z,102125.63
2022-10-11T21:42:01.894Z,102131.72
2022-10-11T21:44:32.826Z,102129.16
2022-10-11T21:47:07.500Z,102132.53
2022-10-11T21:49:38.051Z,102125.47
2022-10-11T21:52:09.645Z,102142.91
2022-10-11T21:54:39.718Z,102123.59
2022-10-11T21:57:09.915Z,102142.78
2022-10-11T21:59:40.072Z,102135.81
2022-10-11T22:02:10.557Z,102145.34
2022-10-11T22:04:40.758Z,102145.34
2022-10-11T22:07:10.905Z,102135.72
2022-10-11T22:09:41.081Z,102142.72
2022-10-11T22:12:11.196Z,102132.19
2022-10-11T22:14:41.332Z,102134.78
2022-10-11T22:17:11.452Z,102126.03
2022-10-11T22:19:41.518Z,102134.81
2022-10-11T22:22:11.841Z,102133.97
2022-10-11T22:24:41.990Z,102129.59
2022-10-11T22:27:12.086Z,102123.53
2022-10-11T22:29:42.383Z,102141.84
2022-10-11T22:32:12.827Z,102133.16
2022-10-11T22:34:43.318Z,102130.56
2022-10-11T22:37:13.439Z,102146.31
2022-10-11T22:39:43.604Z,102139.31
2022-10-11T22:42:13.799Z,102140.22
2022-10-11T22:44:43.965Z,102144.69
2022-10-11T22:47:14.087Z,102133.38
2022-10-11T22:49:44.199Z,102143.91
2022-10-11T22:52:14.862Z,102150.78
2022-10-11T22:54:45.018Z,102148.22
2022-10-11T22:57:15.204Z,102146.50
2022-10-11T22:59:45.260Z,102156.09
2022-10-11T23:02:15.470Z,102144.84
2022-10-11T23:04:45.660Z,102138.69
2022-10-11T23:07:15.759Z,102130.81
2022-10-11T23:09:45.869Z,102143.06
2022-10-11T23:12:16.081Z,102151.78
2022-10-11T23:14:46.250Z,102151.72
2022-10-11T23:17:16.402Z,102149.97
2022-10-11T23:19:46.952Z,102156.09
2022-10-11T23:22:17.090Z,102151.75
2022-10-11T23:24:47.359Z,102140.38
2022-10-11T23:27:17.560Z,102159.56
2022-10-11T23:29:47.677Z,102154.31
2022-10-11T23:32:17.742Z,102144.69
2022-10-11T23:34:47.875Z,102152.53
2022-10-11T23:37:18.245Z,102154.19
2022-10-11T23:39:48.491Z,102151.53
2022-10-11T23:42:18.621Z,102154.13
2022-10-11T23:44:48.833Z,102160.19
2022-10-11T23:47:18.977Z,102164.53
2022-10-11T23:49:49.140Z,102163.66
2022-10-11T23:52:19.218Z,102167.09
2022-10-11T23:54:49.402Z,102166.22
2022-10-11T23:57:19.558Z,102170.47
2022-10-11T23:59:49.601Z,102172.25
